createdAt,value
2022-12-20T00:02:30.902Z,89.97
2022-12-20T00:07:22.692Z,82.60
2022-12-20T00:12:14.461Z,74.10
2022-12-20T00:17:06.259Z,95.43
2022-12-20T00:21:59.000Z,92.03
2022-12-20T00:26:50.667Z,81.03
2022-12-20T00:31:42.389Z,78.47
2022-12-20T00:36:34.274Z,62.30
2022-12-20T00:41:30.954Z,61.73
2022-12-20T00:46:24.539Z,54.33
2022-12-20T00:51:26.818Z,50.67
2022-12-20T00:56:19.043Z,45.10
2022-12-20T01:01:23.970Z,49.77
2022-12-20T01:06:16.538Z,50.70
2022-12-20T01:11:12.358Z,54.80
2022-12-20T01:16:08.735Z,60.87
2022-12-20T01:21:21.204Z,51.43
2022-12-20T01:26:16.863Z,48.17
2022-12-20T01:31:11.790Z,45.77
2022-12-20T01:36:08.575Z,43.00
2022-12-20T01:41:01.497Z,47.20
2022-12-20T01:45:53.246Z,51.80
2022-12-20T01:50:48.003Z,52.43
2022-12-20T01:55:40.033Z,53.97
2022-12-20T02:00:31.827Z,58.30
2022-12-20T02:05:23.993Z,60.50
2022-12-20T02:10:17.561Z,64.10
2022-12-20T02:15:24.714Z,46.77
2022-12-20T02:20:48.253Z,51.60
2022-12-20T02:26:05.699Z,50.60
2022-12-20T02:31:03.316Z,57.30
2022-12-20T02:35:55.047Z,56.00
2022-12-20T02:40:46.791Z,63.43
2022-12-20T02:45:38.681Z,77.53
2022-12-20T02:50:38.056Z,71.07
2022-12-20T03:00:56.867Z,78.27
2022-12-20T03:05:52.116Z,71.60
2022-12-20T03:10:44.473Z,67.90
2022-12-20T03:15:36.536Z,78.87
2022-12-20T03:20:28.502Z,83.73
2022-12-20T03:25:20.335Z,94.87
2022-12-20T03:30:13.543Z,120.33
2022-12-20T03:35:06.501Z,85.23
2022-12-20T03:39:58.191Z,74.37
2022-12-20T03:44:49.999Z,79.60
2022-12-20T03:49:41.739Z,87.53
2022-12-20T03:54:33.507Z,86.77
2022-12-20T03:59:25.212Z,81.10
2022-12-20T04:04:16.928Z,91.93
2022-12-20T04:09:08.687Z,74.67
2022-12-20T04:14:00.371Z,72.93
2022-12-20T04:18:52.595Z,82.17
2022-12-20T04:23:44.358Z,71.23
2022-12-20T04:28:36.709Z,75.57
2022-12-20T04:33:29.360Z,79.37
2022-12-20T04:38:22.540Z,74.77
2022-12-20T04:43:14.209Z,64.37
2022-12-20T04:48:28.992Z,69.93
2022-12-20T04:53:36.403Z,86.47
2022-12-20T04:58:29.038Z,67.70
2022-12-20T05:29:17.350Z,90.80
2022-12-20T06:00:00.036Z,78.13
2022-12-20T06:20:20.650Z,79.07
2022-12-20T08:38:50.280Z,75.33
2022-12-20T10:34:38.150Z,60.70
2022-12-20T12:29:23.215Z,41.33
2022-12-20T12:34:31.114Z,43.23
2022-12-20T12:39:44.848Z,33.97
2022-12-20T12:44:59.352Z,37.13
2022-12-20T12:50:00.513Z,39.00
2022-12-20T13:00:01.029Z,42.87
2022-12-20T13:10:20.071Z,41.90
2022-12-20T13:36:10.422Z,35.70
2022-12-20T13:41:35.535Z,37.10
2022-12-20T13:57:47.398Z,35.90
2022-12-20T14:02:47.765Z,35.30
2022-12-20T14:12:46.926Z,35.23
2022-12-20T14:17:44.693Z,34.80
2022-12-20T14:43:45.020Z,49.03
2022-12-20T14:59:45.709Z,42.47
2022-12-20T15:09:48.924Z,46.57
2022-12-20T19:17:56.060Z,40.37
2022-12-20T19:33:02.054Z,40.60
2022-12-20T20:44:28.604Z,35.07
2022-12-20T21:45:42.068Z,41.47
2022-12-20T22:00:54.564Z,39.97
2022-12-20T22:05:56.583Z,37.63
2022-12-20T22:10:51.162Z,36.47
2022-12-20T22:25:56.169Z,38.53
2022-12-20T22:30:55.991Z,35.70
2022-12-20T22:41:02.714Z,36.73
2022-12-20T23:17:12.273Z,34.20
2022-12-20T23:22:24.403Z,34.30
2022-12-20T23:27:17.236Z,39.30
2022-12-20T23:37:16.048Z,33.27
2022-12-20T23:47:22.603Z,31.83
2022-12-20T23:57:34.426Z,30.83
